Big Stone 5 — WSE3119 — position and weather

sailwx.info

Track history (hours):
 
Tides and Currents Weather Stations Pressure Air Temp Water Temp Dewpoint Dewpoint Depression Visibility Wind Speed Wind Dir Waves Ship Positions

Big Stone 5

Owner: DELAWARE BAY LAUNCH SERVICE INC, MILFORD, DE. More information available from US FCC via Universal Licensing System and Coast Guard Vessel Documentation Center.

Last reported at 2017-Dec-14 13:11 UTC. Time now 2017-Dec-16 07:22 UTC.
Position N 38°59' W 075°12'.

Length 16 m; draft 1 m.

Type: Pilot. MMSI: 367090580.

Date/timePositionNaut miles runAvg speedWind from/ knotsBaromVisibWave heightAir tempDewpointWater temp
2017-Dec-14 13:11N 38°59' W 075°12'6 1.5
2017-Dec-14 09:16N 38°56' W 075°19'6 0.1
2017-Dec-12 19:20N 38°60' W 075°13'2 0.1
2017-Dec-11 19:56N 38°58' W 075°12'5 7.9
2017-Dec-11 19:17N 38°56' W 075°18'1 3.6
2017-Dec-11 18:55N 38°57' W 075°16'2 0.5
2017-Dec-11 14:41N 38°56' W 075°19'615.4
2017-Dec-11 14:18N 38°58' W 075°12'518.3
2017-Dec-11 14:01N 38°56' W 075°18'6 9.7
2017-Dec-11 13:20N 38°56' W 075°10'6 8.5
2017-Dec-11 12:35N 38°56' W 075°18'1 8.8
2017-Dec-11 12:29N 38°57' W 075°19'6 1.3
2017-Dec-11 07:18N 38°57' W 075°11'0 0.2
2017-Dec-11 06:55N 38°57' W 075°11'614.0
2017-Dec-11 06:30N 38°57' W 075°18'8 2.2
2017-Dec-11 02:59N 38°53' W 075°09'8 0.7
2017-Dec-10 15:23N 38°56' W 075°19'1 0.0
2017-Dec-09 11:25N 38°56' W 075°18'1 0.4
2017-Dec-09 09:28N 38°56' W 075°19'0 0.0
2017-Dec-09 09:00N 38°56' W 075°19'5 6.1
2017-Dec-09 08:11N 38°56' W 075°13'523.1
2017-Dec-09 07:59N 38°57' W 075°18'1 0.6
2017-Dec-09 07:09N 38°56' W 075°19'0 0.0
2017-Dec-09 06:31N 38°56' W 075°19'0 0.0
2017-Dec-09 06:30N 38°56' W 075°19'6 0.9
2017-Dec-09 00:32N 38°57' W 075°12'1 0.0
2017-Dec-07 05:24N 38°58' W 075°12'  
Track history (hours):
 
Tides and Currents Weather Stations Pressure Air Temp Water Temp Dewpoint Dewpoint Depression Visibility Wind Speed Wind Dir Waves Ship Positions

Big Stone 5

Owner: DELAWARE BAY LAUNCH SERVICE INC, MILFORD, DE. More information available from US FCC via Universal Licensing System and Coast Guard Vessel Documentation Center.

Last reported at 2017-Dec-14 13:11 UTC. Time now 2017-Dec-16 07:22 UTC.
Position N 38°59' W 075°12'.

Length 16 m; draft 1 m.

Type: Pilot. MMSI: 367090580.

Date/timePositionNaut miles runAvg speedWind from/ knotsBaromVisibWave heightAir tempDewpointWater temp
2017-Dec-14 13:11N 38°59' W 075°12'6 1.5
2017-Dec-14 09:16N 38°56' W 075°19'6 0.1
2017-Dec-12 19:20N 38°60' W 075°13'2 0.1
2017-Dec-11 19:56N 38°58' W 075°12'5 7.9
2017-Dec-11 19:17N 38°56' W 075°18'1 3.6
2017-Dec-11 18:55N 38°57' W 075°16'2 0.5
2017-Dec-11 14:41N 38°56' W 075°19'615.4
2017-Dec-11 14:18N 38°58' W 075°12'518.3
2017-Dec-11 14:01N 38°56' W 075°18'6 9.7
2017-Dec-11 13:20N 38°56' W 075°10'6 8.5
2017-Dec-11 12:35N 38°56' W 075°18'1 8.8
2017-Dec-11 12:29N 38°57' W 075°19'6 1.3
2017-Dec-11 07:18N 38°57' W 075°11'0 0.2
2017-Dec-11 06:55N 38°57' W 075°11'614.0
2017-Dec-11 06:30N 38°57' W 075°18'8 2.2
2017-Dec-11 02:59N 38°53' W 075°09'8 0.7
2017-Dec-10 15:23N 38°56' W 075°19'1 0.0
2017-Dec-09 11:25N 38°56' W 075°18'1 0.4
2017-Dec-09 09:28N 38°56' W 075°19'0 0.0
2017-Dec-09 09:00N 38°56' W 075°19'5 6.1
2017-Dec-09 08:11N 38°56' W 075°13'523.1
2017-Dec-09 07:59N 38°57' W 075°18'1 0.6
2017-Dec-09 07:09N 38°56' W 075°19'0 0.0
2017-Dec-09 06:31N 38°56' W 075°19'0 0.0
2017-Dec-09 06:30N 38°56' W 075°19'6 0.9
2017-Dec-09 00:32N 38°57' W 075°12'1 0.0
2017-Dec-07 05:24N 38°58' W 075°12'  

Dump ship's entire track history